Time;durP1;ratioP1;P1;durP2;ratioP2;P2;SDS_P1;SDS_P2;PMS_P1;PMS_P2;Temp;Humidity;BMP_temperature;BMP_pressure;BME280_temperature;BME280_humidity;BME280_pressure;Samples;Min_cycle;Max_cycle;Signal;HPM_P1;HPM_P2
2023/12/19 00:02:23;;;;;;;11.00;5.40;;;8.60;98.50;;;;;;6212715;23;20350;-69
2023/12/19 00:05:09;;;;;;;7.72;5.38;;;8.70;98.50;;;;;;6215280;23;20035;-69
2023/12/19 00:07:55;;;;;;;9.27;5.30;;;8.70;98.40;;;;;;6213036;23;20529;-69
2023/12/19 00:10:42;;;;;;;8.88;5.63;;;8.70;98.30;;;;;;6212391;23;20009;-69
2023/12/19 00:13:28;;;;;;;6.53;4.60;;;8.70;98.30;;;;;;6189546;23;20019;-69
2023/12/19 00:16:14;;;;;;;7.88;4.70;;;8.80;98.20;;;;;;6211518;23;20397;-69
2023/12/19 00:19:00;;;;;;;8.02;4.97;;;8.80;98.20;;;;;;6213174;23;20051;-69
2023/12/19 00:21:46;;;;;;;6.43;4.75;;;8.80;98.20;;;;;;6192146;23;20043;-69
2023/12/19 00:24:32;;;;;;;6.05;4.43;;;8.70;98.10;;;;;;6235499;23;20060;-68
2023/12/19 00:27:18;;;;;;;6.55;4.70;;;8.80;98.10;;;;;;6232331;23;20009;-68
2023/12/19 00:30:04;;;;;;;5.60;4.47;;;8.70;98.00;;;;;;6229055;23;20044;-70
2023/12/19 00:32:50;;;;;;;7.50;4.93;;;8.80;98.00;;;;;;6231002;23;20032;-70
2023/12/19 00:35:36;;;;;;;5.90;4.25;;;8.80;98.10;;;;;;6211592;23;20013;-70
2023/12/19 00:38:22;;;;;;;6.65;4.60;;;8.80;97.80;;;;;;6212887;23;20052;-66
2023/12/19 00:41:08;;;;;;;6.25;4.22;;;8.80;97.80;;;;;;6211914;23;20091;-65
2023/12/19 00:43:53;;;;;;;6.72;5.05;;;8.80;97.70;;;;;;6212198;23;20015;-65
2023/12/19 00:46:43;;;;;;;7.95;4.70;;;8.80;97.60;;;;;;6212911;23;20040;-65
2023/12/19 00:49:29;;;;;;;7.70;4.60;;;8.80;97.60;;;;;;6212780;23;20036;-64
2023/12/19 00:52:15;;;;;;;6.55;4.68;;;8.90;97.50;;;;;;6211643;23;20005;-65
2023/12/19 00:55:01;;;;;;;5.28;3.63;;;8.90;97.50;;;;;;6211781;23;20035;-64
2023/12/19 00:57:47;;;;;;;6.70;4.18;;;8.90;97.40;;;;;;6211321;23;20095;-65
2023/12/19 01:00:33;;;;;;;8.10;5.00;;;8.90;97.30;;;;;;6211907;23;20401;-65
2023/12/19 01:03:19;;;;;;;5.70;4.35;;;8.90;97.30;;;;;;6212223;23;20043;-65
2023/12/19 01:06:06;;;;;;;7.90;4.30;;;8.90;97.20;;;;;;6213199;23;20017;-65
2023/12/19 01:08:53;;;;;;;5.82;3.92;;;9.00;97.20;;;;;;6209651;23;20040;-65
2023/12/19 01:11:39;;;;;;;6.38;4.05;;;9.00;97.10;;;;;;6210057;23;20040;-65
2023/12/19 01:14:24;;;;;;;6.10;4.05;;;8.90;97.10;;;;;;6211627;23;20027;-65
2023/12/19 01:17:10;;;;;;;6.53;4.60;;;8.90;97.10;;;;;;6212142;23;20104;-65
2023/12/19 01:19:56;;;;;;;6.28;3.75;;;8.90;97.20;;;;;;6210397;23;20435;-65
2023/12/19 01:22:43;;;;;;;6.90;3.97;;;8.90;97.10;;;;;;6209992;23;20008;-65
2023/12/19 01:25:29;;;;;;;4.95;3.60;;;9.00;97.10;;;;;;6210827;23;20091;-64
2023/12/19 01:28:14;;;;;;;6.55;3.90;;;9.00;97.00;;;;;;6208529;23;20059;-67
2023/12/19 01:31:00;;;;;;;5.28;3.90;;;9.00;97.00;;;;;;6190328;23;20017;-64
2023/12/19 01:33:46;;;;;;;6.43;3.92;;;9.00;96.90;;;;;;6212023;23;20028;-66
2023/12/19 01:36:32;;;;;;;4.78;3.53;;;9.10;96.90;;;;;;6211474;23;20012;-65
2023/12/19 01:39:18;;;;;;;6.32;4.40;;;9.10;96.90;;;;;;6212334;23;20256;-65
2023/12/19 01:42:04;;;;;;;4.63;3.80;;;9.10;96.80;;;;;;6209884;23;20012;-65
2023/12/19 01:45:13;;;;;;;7.85;4.35;;;9.10;96.70;;;;;;6209775;23;20235;-66
2023/12/19 01:47:59;;;;;;;6.25;3.80;;;9.20;96.60;;;;;;6211220;23;20011;-65
2023/12/19 01:50:46;;;;;;;8.25;3.78;;;9.20;96.60;;;;;;6189888;23;20507;-65
2023/12/19 01:53:32;;;;;;;5.20;3.42;;;9.20;96.60;;;;;;6210362;23;20025;-65
2023/12/19 01:56:20;;;;;;;5.28;3.88;;;9.20;96.50;;;;;;6209659;23;20013;-65
2023/12/19 01:59:06;;;;;;;6.78;3.90;;;9.20;96.40;;;;;;6213520;23;20403;-65
2023/12/19 02:01:53;;;;;;;6.15;3.78;;;9.30;96.40;;;;;;6209317;23;20021;-65
2023/12/19 02:04:39;;;;;;;4.43;3.67;;;9.30;96.30;;;;;;6209594;23;20009;-65
2023/12/19 02:07:25;;;;;;;6.15;3.88;;;9.30;96.30;;;;;;6212044;23;20462;-65
2023/12/19 02:10:12;;;;;;;6.43;3.70;;;9.30;96.20;;;;;;6208750;23;20020;-65
2023/12/19 02:12:59;;;;;;;5.20;3.50;;;9.30;96.20;;;;;;6210952;23;20043;-65
2023/12/19 02:15:45;;;;;;;5.10;3.53;;;9.30;96.10;;;;;;6211301;23;20020;-64
2023/12/19 02:18:30;;;;;;;5.35;3.40;;;9.30;96.10;;;;;;6209766;23;20091;-65
2023/12/19 02:21:16;;;;;;;5.57;3.80;;;9.30;96.00;;;;;;6209887;23;20039;-65
2023/12/19 02:24:03;;;;;;;5.95;3.92;;;9.30;96.00;;;;;;6210009;23;20313;-64
2023/12/19 02:26:49;;;;;;;4.78;3.63;;;9.30;96.00;;;;;;6211652;23;20013;-65
2023/12/19 02:29:35;;;;;;;6.10;3.72;;;9.40;96.00;;;;;;6189193;23;20091;-65
2023/12/19 02:32:21;;;;;;;6.45;3.65;;;9.40;96.00;;;;;;6212041;23;20442;-66
2023/12/19 02:35:07;;;;;;;6.13;3.60;;;9.40;95.90;;;;;;6208457;23;20051;-65
2023/12/19 02:37:53;;;;;;;4.75;3.17;;;9.40;96.00;;;;;;6210440;23;20019;-65
2023/12/19 02:40:40;;;;;;;7.88;3.97;;;9.30;95.90;;;;;;6211202;23;20095;-65
2023/12/19 02:43:25;;;;;;;6.55;4.00;;;9.30;96.00;;;;;;6211546;23;20004;-65
2023/12/19 02:46:11;;;;;;;5.38;3.70;;;9.40;96.00;;;;;;6212222;23;20448;-65
2023/12/19 02:48:58;;;;;;;5.43;3.95;;;9.40;96.00;;;;;;6210684;23;20520;-65
2023/12/19 02:51:44;;;;;;;5.65;3.83;;;9.40;96.00;;;;;;6209893;23;20033;-65
2023/12/19 02:54:30;;;;;;;5.78;4.22;;;9.40;96.00;;;;;;6210914;23;20104;-66
2023/12/19 02:57:16;;;;;;;7.03;4.05;;;9.40;95.90;;;;;;6209321;23;20091;-66
2023/12/19 03:00:02;;;;;;;4.72;3.55;;;9.40;96.00;;;;;;6211372;23;20083;-66
2023/12/19 03:02:48;;;;;;;5.32;4.25;;;9.40;96.00;;;;;;6209143;23;20016;-66
2023/12/19 03:05:34;;;;;;;6.00;3.90;;;9.40;96.10;;;;;;6211344;23;20401;-66
2023/12/19 03:08:20;;;;;;;6.18;4.03;;;9.40;96.10;;;;;;6209866;23;20441;-66
2023/12/19 03:11:06;;;;;;;5.60;4.05;;;9.40;96.20;;;;;;6210737;23;20051;-65
2023/12/19 03:13:52;;;;;;;7.03;4.45;;;9.40;96.20;;;;;;6211061;23;20119;-65
2023/12/19 03:16:37;;;;;;;7.70;4.57;;;9.40;96.20;;;;;;6210161;23;20017;-65
2023/12/19 03:19:23;;;;;;;6.05;4.28;;;9.40;96.30;;;;;;6211145;23;20347;-64
2023/12/19 03:22:09;;;;;;;5.60;4.03;;;9.50;96.30;;;;;;6211427;23;20087;-64
2023/12/19 03:24:56;;;;;;;6.00;4.07;;;9.50;96.40;;;;;;6210994;23;20087;-64
2023/12/19 03:27:42;;;;;;;5.90;4.18;;;9.50;96.40;;;;;;6211882;23;20111;-65
2023/12/19 03:30:28;;;;;;;5.57;4.28;;;9.50;96.50;;;;;;6209033;23;20009;-65
2023/12/19 03:33:14;;;;;;;6.63;4.80;;;9.50;96.60;;;;;;6210355;23;20442;-65
2023/12/19 03:36:00;;;;;;;7.13;4.68;;;9.50;96.60;;;;;;6210852;23;20017;-65
2023/12/19 03:38:46;;;;;;;6.60;4.88;;;9.50;96.70;;;;;;6236353;23;20005;-64
2023/12/19 03:41:32;;;;;;;6.18;4.65;;;9.50;96.70;;;;;;6229710;23;20152;-64
2023/12/19 03:44:17;;;;;;;7.20;5.50;;;9.60;96.80;;;;;;6211129;23;20429;-65
2023/12/19 03:47:03;;;;;;;6.47;4.65;;;9.60;96.90;;;;;;6208181;23;20016;-65
2023/12/19 03:49:50;;;;;;;6.97;5.07;;;9.60;96.90;;;;;;6208719;23;20055;-65
2023/12/19 03:52:36;;;;;;;8.15;5.55;;;9.60;97.00;;;;;;6211550;23;20008;-65
2023/12/19 03:55:22;;;;;;;6.25;4.80;;;9.60;97.00;;;;;;6211336;23;20044;-65
2023/12/19 03:58:07;;;;;;;8.00;5.68;;;9.70;97.10;;;;;;6210223;23;20119;-65
2023/12/19 04:00:53;;;;;;;7.50;5.07;;;9.70;97.10;;;;;;6212226;23;20338;-65
2023/12/19 04:03:39;;;;;;;8.63;5.80;;;9.70;97.20;;;;;;6210669;23;20011;-65
2023/12/19 04:06:25;;;;;;;8.02;5.10;;;9.70;97.20;;;;;;6211164;23;20072;-65
2023/12/19 04:09:11;;;;;;;8.55;5.38;;;9.80;97.30;;;;;;6213601;23;20016;-65
2023/12/19 04:12:01;;;;;;;7.75;5.72;;;9.70;97.30;;;;;;6212715;23;20013;-65
2023/12/19 04:14:47;;;;;;;8.52;5.95;;;9.80;97.40;;;;;;6212308;23;20044;-65
2023/12/19 04:17:33;;;;;;;7.95;5.22;;;9.80;97.40;;;;;;6210813;23;20358;-65
2023/12/19 04:20:19;;;;;;;6.25;4.68;;;9.80;97.40;;;;;;6210482;23;20019;-66
2023/12/19 04:23:05;;;;;;;8.95;5.45;;;9.80;97.50;;;;;;6212190;23;20073;-66
2023/12/19 04:25:51;;;;;;;8.20;5.47;;;9.80;97.50;;;;;;6210750;23;20403;-66
2023/12/19 04:28:38;;;;;;;8.15;5.22;;;9.80;97.60;;;;;;6212767;23;20439;-65
2023/12/19 04:31:24;;;;;;;10.18;5.70;;;9.80;97.60;;;;;;6212335;23;20531;-67
2023/12/19 04:34:10;;;;;;;7.25;5.07;;;9.90;97.70;;;;;;6189657;23;20028;-67
2023/12/19 04:36:56;;;;;;;7.95;5.43;;;9.90;97.70;;;;;;6213440;23;20071;-67
2023/12/19 04:39:42;;;;;;;9.68;6.10;;;9.90;97.80;;;;;;6212454;23;20076;-66
2023/12/19 04:42:27;;;;;;;10.00;6.30;;;9.90;97.80;;;;;;6212349;23;20012;-66
2023/12/19 04:45:13;;;;;;;7.43;5.50;;;9.90;97.90;;;;;;6207663;23;20016;-66
2023/12/19 04:47:59;;;;;;;7.60;5.63;;;9.90;97.90;;;;;;6189848;23;20013;-66
2023/12/19 04:50:45;;;;;;;8.50;5.30;;;9.90;97.90;;;;;;6211833;23;20004;-66
2023/12/19 04:53:31;;;;;;;7.72;5.45;;;9.90;97.90;;;;;;6210078;23;20024;-66
2023/12/19 04:56:17;;;;;;;8.10;5.65;;;10.00;97.90;;;;;;6209668;23;20040;-66
2023/12/19 04:59:03;;;;;;;7.50;4.90;;;10.00;97.90;;;;;;6210270;23;20342;-66
2023/12/19 05:01:49;;;;;;;8.88;5.05;;;10.00;97.90;;;;;;6185917;23;20087;-66
2023/12/19 05:04:35;;;;;;;7.05;5.68;;;10.00;97.90;;;;;;6211307;23;20005;-66
2023/12/19 05:07:21;;;;;;;8.15;5.60;;;10.00;97.90;;;;;;6210794;23;20155;-66
2023/12/19 05:10:08;;;;;;;7.18;4.95;;;9.90;98.00;;;;;;6211545;23;20016;-66
2023/12/19 05:12:54;;;;;;;8.15;5.30;;;10.00;98.00;;;;;;6187712;23;20012;-66
2023/12/19 05:15:39;;;;;;;7.57;5.47;;;10.00;98.00;;;;;;6212202;23;20120;-66
2023/12/19 05:18:25;;;;;;;8.25;5.25;;;10.00;98.00;;;;;;6210533;23;20012;-67
2023/12/19 05:21:12;;;;;;;7.60;5.72;;;10.00;98.00;;;;;;6211088;23;20337;-66
2023/12/19 05:23:58;;;;;;;7.57;5.55;;;10.00;98.00;;;;;;6210249;23;20008;-66
2023/12/19 05:26:44;;;;;;;7.55;5.07;;;9.90;98.00;;;;;;6212319;23;20009;-67
2023/12/19 05:29:29;;;;;;;9.35;5.07;;;9.90;97.90;;;;;;6211664;23;20005;-66
2023/12/19 05:32:15;;;;;;;8.90;5.25;;;10.00;97.90;;;;;;6211866;23;20012;-66
2023/12/19 05:35:01;;;;;;;7.57;4.65;;;9.90;97.80;;;;;;6209636;23;20025;-66
2023/12/19 05:37:47;;;;;;;7.03;5.00;;;9.90;97.70;;;;;;6210115;23;20008;-66
2023/12/19 05:40:35;;;;;;;8.48;4.80;;;9.90;97.70;;;;;;6211230;23;20013;-66
2023/12/19 05:43:20;;;;;;;9.32;5.20;;;9.90;97.50;;;;;;6211115;23;20096;-67
2023/12/19 05:46:06;;;;;;;7.82;4.85;;;9.90;97.50;;;;;;6211984;23;20020;-66
2023/12/19 05:48:52;;;;;;;6.10;4.15;;;9.90;97.40;;;;;;6210115;23;20047;-64
2023/12/19 05:51:39;;;;;;;5.80;4.03;;;9.90;97.40;;;;;;6210105;23;20016;-64
2023/12/19 05:54:25;;;;;;;6.43;4.18;;;9.90;97.30;;;;;;6207771;23;20027;-63
2023/12/19 05:57:11;;;;;;;6.05;4.63;;;9.80;97.30;;;;;;6211332;23;20019;-65
2023/12/19 05:59:57;;;;;;;5.82;4.43;;;9.80;97.30;;;;;;6209964;23;20015;-67
2023/12/19 06:02:43;;;;;;;7.25;4.65;;;9.80;97.30;;;;;;6210888;23;20319;-69
2023/12/19 06:05:29;;;;;;;8.07;4.68;;;9.70;97.30;;;;;;6211805;23;20330;-67
2023/12/19 06:08:17;;;;;;;5.57;4.30;;;9.70;97.20;;;;;;6211595;23;20016;-67
2023/12/19 06:11:03;;;;;;;6.25;4.45;;;9.80;97.20;;;;;;6211737;23;20005;-68
2023/12/19 06:13:49;;;;;;;6.68;4.28;;;9.80;97.20;;;;;;6208634;23;20013;-69
2023/12/19 06:16:35;;;;;;;6.55;4.25;;;9.80;97.20;;;;;;6210993;23;20462;-69
2023/12/19 06:19:21;;;;;;;6.97;4.60;;;9.80;97.10;;;;;;6211873;23;20016;-69
2023/12/19 06:22:08;;;;;;;6.75;4.80;;;9.90;97.00;;;;;;6211014;23;20013;-70
2023/12/19 06:24:54;;;;;;;7.57;4.45;;;9.90;97.00;;;;;;6209823;23;20004;-69
2023/12/19 06:27:42;;;;;;;6.03;4.05;;;9.90;96.90;;;;;;6211177;23;20504;-69
2023/12/19 06:30:28;;;;;;;6.88;4.95;;;9.80;96.90;;;;;;6211451;23;20074;-64
2023/12/19 06:33:14;;;;;;;5.80;4.07;;;9.80;96.90;;;;;;6209687;23;20035;-64
2023/12/19 06:36:00;;;;;;;5.75;4.28;;;9.80;96.80;;;;;;6211067;23;20016;-64
2023/12/19 06:38:46;;;;;;;6.18;4.57;;;9.70;96.80;;;;;;6211659;23;20016;-65
2023/12/19 06:41:31;;;;;;;7.28;4.75;;;9.80;96.80;;;;;;6211113;23;20113;-64
2023/12/19 06:44:17;;;;;;;6.70;5.00;;;9.80;96.80;;;;;;6211385;23;20009;-65
2023/12/19 06:47:03;;;;;;;6.95;5.03;;;9.70;96.80;;;;;;6211414;23;20391;-65
2023/12/19 06:49:49;;;;;;;7.43;4.88;;;9.70;96.90;;;;;;6210300;23;20060;-65
2023/12/19 06:52:35;;;;;;;8.15;5.15;;;9.70;96.90;;;;;;6234779;23;20001;-65
2023/12/19 06:55:21;;;;;;;7.40;5.20;;;9.70;97.00;;;;;;6235976;23;20076;-65
2023/12/19 06:58:07;;;;;;;7.25;5.18;;;9.70;97.00;;;;;;6212194;23;20067;-65
2023/12/19 07:00:53;;;;;;;7.68;5.00;;;9.70;97.00;;;;;;6212385;23;20013;-64
2023/12/19 07:03:42;;;;;;;8.30;4.90;;;9.70;97.00;;;;;;6188859;23;20087;-65
2023/12/19 07:06:27;;;;;;;8.82;4.85;;;9.70;97.00;;;;;;6209661;23;20040;-65
2023/12/19 07:09:14;;;;;;;9.23;5.30;;;9.80;97.00;;;;;;6211352;23;20015;-65
2023/12/19 07:12:00;;;;;;;10.18;4.82;;;9.80;97.10;;;;;;6211662;23;20016;-65
2023/12/19 07:14:46;;;;;;;8.43;5.22;;;9.80;97.00;;;;;;6209920;23;20019;-64
2023/12/19 07:17:32;;;;;;;8.20;4.60;;;9.80;97.00;;;;;;6210360;23;20095;-65
2023/12/19 07:20:18;;;;;;;5.90;4.30;;;9.80;97.00;;;;;;6211224;23;20011;-65
2023/12/19 07:23:04;;;;;;;5.80;4.07;;;9.90;97.00;;;;;;6207828;23;20035;-65
2023/12/19 07:25:50;;;;;;;5.45;4.50;;;9.90;97.00;;;;;;6209117;23;20062;-65
2023/12/19 07:28:36;;;;;;;7.28;4.97;;;9.90;97.10;;;;;;6210861;23;20017;-65
2023/12/19 07:31:32;;;;;;;7.80;4.82;;;9.90;97.10;;;;;;6209889;23;20013;-65
2023/12/19 07:34:18;;;;;;;10.57;6.15;;;9.90;97.20;;;;;;6208623;23;20017;-65
2023/12/19 07:37:04;;;;;;;7.60;4.90;;;9.90;97.20;;;;;;6212309;23;20342;-65
2023/12/19 07:39:50;;;;;;;7.15;4.53;;;10.00;97.30;;;;;;6212151;23;20012;-65
2023/12/19 07:42:36;;;;;;;7.25;5.10;;;10.00;97.30;;;;;;6191015;23;20012;-65
2023/12/19 07:45:22;;;;;;;7.75;5.22;;;10.00;97.30;;;;;;6213607;23;20008;-64
2023/12/19 07:48:08;;;;;;;8.27;5.15;;;10.00;97.40;;;;;;6211155;23;20012;-65
2023/12/19 07:50:54;;;;;;;8.25;5.70;;;10.00;97.40;;;;;;6212879;23;20084;-65
2023/12/19 07:53:40;;;;;;;7.88;5.22;;;10.00;97.50;;;;;;6212432;23;20025;-65
2023/12/19 07:56:26;;;;;;;9.30;5.13;;;10.00;97.70;;;;;;6212251;23;20016;-64
2023/12/19 07:59:13;;;;;;;6.60;5.18;;;10.00;97.80;;;;;;6212834;23;20450;-65
2023/12/19 08:01:59;;;;;;;7.07;5.15;;;10.00;97.90;;;;;;6166570;23;20013;-64
2023/12/19 08:04:45;;;;;;;7.55;4.88;;;10.00;98.00;;;;;;6210958;23;20005;-65
2023/12/19 08:07:31;;;;;;;8.13;4.90;;;10.00;98.00;;;;;;6212136;23;20019;-65
2023/12/19 08:10:17;;;;;;;6.95;4.95;;;10.00;98.10;;;;;;6211784;23;20001;-66
2023/12/19 08:13:03;;;;;;;10.32;5.35;;;10.00;98.20;;;;;;6211467;23;20364;-66
2023/12/19 08:15:49;;;;;;;7.90;5.60;;;9.90;98.30;;;;;;6210420;23;20104;-68
2023/12/19 08:18:36;;;;;;;11.75;5.63;;;9.90;98.40;;;;;;6208869;23;20083;-67
2023/12/19 08:21:22;;;;;;;7.72;5.60;;;9.90;98.50;;;;;;6210984;23;20520;-67
2023/12/19 08:24:08;;;;;;;6.68;5.40;;;9.90;98.60;;;;;;6208504;23;20008;-67
2023/12/19 08:26:54;;;;;;;8.63;5.90;;;9.90;98.70;;;;;;6210317;23;20016;-67
2023/12/19 08:29:40;;;;;;;11.18;5.45;;;9.90;98.70;;;;;;6211604;23;20016;-67
2023/12/19 08:32:27;;;;;;;8.15;5.68;;;9.90;98.80;;;;;;6210687;23;20032;-67
2023/12/19 08:35:13;;;;;;;8.45;5.97;;;9.90;98.90;;;;;;6212548;23;20450;-67
2023/12/19 08:37:59;;;;;;;8.23;5.45;;;9.80;98.80;;;;;;6211413;23;20008;-67
2023/12/19 08:40:45;;;;;;;8.18;5.25;;;9.80;98.70;;;;;;6213430;23;20015;-67
2023/12/19 08:43:32;;;;;;;7.80;5.35;;;9.70;98.70;;;;;;6209936;23;20504;-67
2023/12/19 08:46:18;;;;;;;9.02;5.85;;;9.70;98.70;;;;;;6211966;23;20008;-68
2023/12/19 08:49:04;;;;;;;7.95;5.88;;;9.80;98.80;;;;;;6211455;23;20509;-67
2023/12/19 08:51:50;;;;;;;7.60;5.75;;;9.70;99.10;;;;;;6212083;23;20383;-67
2023/12/19 08:54:36;;;;;;;8.57;5.78;;;9.70;98.90;;;;;;6208458;23;20025;-68
2023/12/19 08:57:22;;;;;;;9.05;5.80;;;9.70;99.00;;;;;;6209818;23;20019;-67
2023/12/19 09:00:13;;;;;;;9.63;7.25;;;9.70;99.00;;;;;;6211856;23;20088;-68
2023/12/19 09:02:59;;;;;;;9.50;6.75;;;9.70;99.00;;;;;;6211861;23;20012;-68
2023/12/19 09:05:46;;;;;;;12.13;6.60;;;9.70;99.10;;;;;;6205798;23;20067;-68
2023/12/19 09:08:32;;;;;;;10.35;6.10;;;9.60;99.10;;;;;;6209873;23;20087;-67
2023/12/19 09:11:18;;;;;;;9.32;5.72;;;9.60;99.10;;;;;;6209678;23;20008;-68
2023/12/19 09:14:04;;;;;;;8.15;6.03;;;9.70;99.10;;;;;;6189726;23;20070;-68
2023/12/19 09:16:50;;;;;;;7.65;5.47;;;9.70;99.10;;;;;;6210232;23;20462;-69
2023/12/19 09:19:37;;;;;;;8.23;6.45;;;9.60;99.10;;;;;;6210041;23;20139;-67
2023/12/19 09:22:23;;;;;;;9.00;5.88;;;9.60;99.10;;;;;;6190797;23;20434;-67
2023/12/19 09:25:14;;;;;;;10.10;5.70;;;9.70;99.10;;;;;;6211656;23;20021;-69
2023/12/19 09:28:00;;;;;;;9.30;6.13;;;9.70;99.00;;;;;;6188457;23;20063;-67
2023/12/19 09:30:46;;;;;;;8.43;5.90;;;9.70;99.00;;;;;;6188970;23;20013;-68
2023/12/19 09:33:34;;;;;;;9.48;6.18;;;9.70;98.90;;;;;;6211969;23;20281;-68
2023/12/19 09:36:21;;;;;;;8.88;6.00;;;9.70;98.90;;;;;;6207661;23;20016;-67
2023/12/19 09:39:07;;;;;;;10.15;6.10;;;9.70;98.90;;;;;;6211478;23;20036;-67
2023/12/19 09:41:53;;;;;;;9.02;5.70;;;9.70;98.90;;;;;;6190655;23;20047;-67
2023/12/19 09:44:40;;;;;;;11.00;6.68;;;9.70;98.90;;;;;;6212106;23;20012;-67
2023/12/19 09:47:30;;;;;;;10.35;6.15;;;9.70;99.00;;;;;;6211779;23;20040;-67
2023/12/19 09:50:17;;;;;;;8.15;6.05;;;9.70;99.00;;;;;;6210983;23;20013;-67
2023/12/19 09:53:07;;;;;;;7.30;5.68;;;9.70;99.10;;;;;;6211344;23;20016;-67
2023/12/19 09:55:53;;;;;;;10.80;6.57;;;9.80;99.10;;;;;;6210141;23;20043;-67
2023/12/19 09:58:41;;;;;;;11.10;7.40;;;9.70;99.10;;;;;;6211376;23;20016;-67
2023/12/19 10:01:28;;;;;;;11.73;7.35;;;9.70;99.20;;;;;;6212991;23;20008;-67
2023/12/19 10:04:14;;;;;;;11.02;7.90;;;9.70;99.30;;;;;;6201297;23;20019;-66
2023/12/19 10:07:00;;;;;;;12.15;7.43;;;9.70;99.50;;;;;;6236848;23;20020;-65
2023/12/19 10:09:56;;;;;;;9.05;6.75;;;9.70;99.60;;;;;;6214947;23;20008;-66
2023/12/19 10:12:50;;;;;;;9.90;6.55;;;9.70;99.70;;;;;;6211384;23;20012;-67
2023/12/19 10:15:36;;;;;;;11.05;7.20;;;9.60;99.70;;;;;;6210217;23;20024;-66
2023/12/19 10:18:23;;;;;;;10.20;6.80;;;9.60;99.80;;;;;;6211902;23;20009;-66
2023/12/19 10:21:11;;;;;;;11.02;7.47;;;9.60;99.90;;;;;;6212158;23;20008;-67
2023/12/19 10:24:08;;;;;;;11.55;7.45;;;9.60;99.90;;;;;;6209440;23;20087;-67
2023/12/19 10:27:07;;;;;;;10.40;6.90;;;9.60;99.90;;;;;;6208296;23;20008;-67
2023/12/19 10:29:53;;;;;;;10.75;7.25;;;9.60;99.90;;;;;;6210105;23;20043;-67
2023/12/19 10:32:40;;;;;;;10.85;7.15;;;9.60;99.90;;;;;;6209719;23;20066;-69
2023/12/19 10:35:35;;;;;;;14.05;8.50;;;9.60;99.90;;;;;;6211427;23;20260;-69
2023/12/19 10:38:21;;;;;;;12.15;8.55;;;9.60;99.90;;;;;;6211853;23;20346;-68
2023/12/19 10:41:07;;;;;;;13.02;8.93;;;9.60;99.90;;;;;;6212088;23;20015;-69
2023/12/19 10:43:58;;;;;;;18.63;10.32;;;9.60;99.90;;;;;;6190368;23;20011;-69
2023/12/19 10:46:45;;;;;;;12.32;7.70;;;9.60;99.90;;;;;;6210967;23;20019;-68
2023/12/19 10:49:31;;;;;;;11.80;8.70;;;9.60;99.90;;;;;;6209967;23;20013;-68
2023/12/19 10:52:19;;;;;;;11.63;8.27;;;9.60;99.90;;;;;;6208267;23;20008;-73
2023/12/19 10:55:11;;;;;;;12.02;8.15;;;9.60;99.90;;;;;;6211766;23;20046;-72
2023/12/19 10:57:58;;;;;;;13.60;7.78;;;9.60;99.90;;;;;;6209652;23;20520;-72
2023/12/19 11:00:45;;;;;;;13.50;7.53;;;9.70;99.90;;;;;;6211110;23;20083;-72
2023/12/19 11:03:41;;;;;;;12.23;7.72;;;9.60;99.90;;;;;;6206493;23;20017;-72
2023/12/19 11:06:34;;;;;;;10.60;6.97;;;9.70;99.90;;;;;;6209596;23;20020;-72
2023/12/19 11:09:24;;;;;;;11.77;6.93;;;9.70;99.90;;;;;;6211481;23;20008;-72
2023/12/19 11:12:12;;;;;;;11.77;8.18;;;9.70;99.90;;;;;;6211179;23;20335;-71
2023/12/19 11:14:57;;;;;;;10.07;7.05;;;9.70;99.90;;;;;;6211389;23;20024;-72
2023/12/19 11:17:53;;;;;;;11.30;7.53;;;9.70;99.90;;;;;;6211718;23;20079;-72
2023/12/19 11:20:45;;;;;;;9.70;6.88;;;9.70;99.90;;;;;;6211763;23;20018;-72
2023/12/19 11:23:39;;;;;;;9.98;7.32;;;9.70;99.90;;;;;;6210191;23;20031;-71
2023/12/19 11:26:34;;;;;;;11.90;7.70;;;9.70;99.90;;;;;;6211332;23;20019;-71
2023/12/19 11:29:46;;;;;;;10.07;7.50;;;9.70;99.90;;;;;;6212044;23;20015;-72
2023/12/19 11:32:33;;;;;;;12.40;8.02;;;9.70;99.90;;;;;;6192266;23;20032;-72
2023/12/19 11:35:19;;;;;;;9.70;7.25;;;9.70;99.90;;;;;;6212949;23;20352;-71
2023/12/19 11:38:14;;;;;;;10.57;7.43;;;9.70;99.90;;;;;;6211871;23;20015;-71
2023/12/19 11:41:01;;;;;;;12.50;7.63;;;9.80;99.90;;;;;;6211220;23;20012;-72
2023/12/19 11:43:51;;;;;;;9.43;7.10;;;9.80;99.90;;;;;;6210878;23;20009;-72
2023/12/19 11:46:38;;;;;;;9.52;6.82;;;9.70;99.90;;;;;;6210735;23;20093;-71
2023/12/19 11:49:37;;;;;;;9.85;7.63;;;9.80;99.90;;;;;;6213558;23;20040;-70
2023/12/19 11:52:32;;;;;;;10.52;7.15;;;9.80;99.90;;;;;;6210951;23;20009;-71
2023/12/19 11:55:24;;;;;;;11.45;8.20;;;9.80;99.90;;;;;;6213058;23;20078;-71
2023/12/19 11:58:14;;;;;;;10.98;8.00;;;9.80;99.90;;;;;;6210020;23;20008;-71
2023/12/19 12:01:01;;;;;;;8.85;6.63;;;9.70;99.90;;;;;;6213062;23;20009;-71
2023/12/19 12:03:49;;;;;;;13.27;7.68;;;9.70;99.90;;;;;;6211740;23;20024;-71
2023/12/19 12:06:39;;;;;;;11.05;7.82;;;9.70;99.90;;;;;;6212946;23;20091;-72
2023/12/19 12:09:25;;;;;;;12.65;7.38;;;9.80;99.90;;;;;;6210710;23;20020;-72
2023/12/19 12:12:11;;;;;;;12.20;8.13;;;9.80;99.90;;;;;;6189520;23;20020;-72
2023/12/19 12:15:18;;;;;;;11.90;8.20;;;9.80;99.90;;;;;;6212538;23;20017;-72
2023/12/19 12:18:06;;;;;;;11.00;8.15;;;9.80;99.90;;;;;;6189959;23;20016;-72
2023/12/19 12:21:04;;;;;;;13.38;7.55;;;9.80;99.90;;;;;;6211506;23;20055;-72
2023/12/19 12:23:52;;;;;;;9.30;7.47;;;9.80;99.90;;;;;;6211649;23;20012;-72
2023/12/19 12:26:38;;;;;;;12.93;8.18;;;9.80;99.90;;;;;;6213106;23;20047;-72
2023/12/19 12:29:35;;;;;;;11.02;7.28;;;9.70;99.90;;;;;;6212130;23;20091;-72
2023/12/19 12:32:25;;;;;;;9.27;7.15;;;9.70;99.90;;;;;;6212896;23;20031;-71
2023/12/19 12:35:28;;;;;;;12.70;8.38;;;9.70;99.90;;;;;;6213097;23;20103;-72
2023/12/19 12:38:17;;;;;;;12.38;8.40;;;9.70;99.90;;;;;;6189028;23;20024;-71
2023/12/19 12:41:04;;;;;;;11.98;7.88;;;9.70;99.90;;;;;;6212393;23;20015;-71
2023/12/19 12:43:50;;;;;;;10.75;7.35;;;9.70;99.90;;;;;;6212260;23;20017;-72
2023/12/19 12:46:43;;;;;;;9.32;7.57;;;9.70;99.90;;;;;;6212897;23;20012;-72
2023/12/19 12:49:29;;;;;;;11.68;8.35;;;9.70;99.90;;;;;;6191028;23;20388;-72
2023/12/19 12:52:15;;;;;;;14.15;9.77;;;9.70;99.90;;;;;;6210417;23;20008;-73
2023/12/19 12:55:02;;;;;;;13.55;8.85;;;9.70;99.90;;;;;;6213110;23;20521;-71
2023/12/19 12:58:02;;;;;;;13.95;9.15;;;9.70;99.90;;;;;;6211080;23;20008;-73
2023/12/19 13:00:48;;;;;;;11.95;8.15;;;9.70;99.90;;;;;;6211738;23;20063;-71
2023/12/19 13:03:34;;;;;;;13.10;8.20;;;9.70;99.90;;;;;;6211849;23;20083;-72
2023/12/19 13:06:20;;;;;;;13.65;8.30;;;9.70;99.90;;;;;;6213335;23;20008;-72
2023/12/19 13:09:13;;;;;;;14.25;9.23;;;9.70;99.90;;;;;;6216119;23;20023;-73
2023/12/19 13:12:00;;;;;;;11.77;8.02;;;9.70;99.90;;;;;;6240059;23;20019;-71
2023/12/19 13:14:46;;;;;;;12.82;9.13;;;9.70;99.90;;;;;;6232294;23;20040;-72
2023/12/19 13:17:32;;;;;;;11.02;8.38;;;9.70;99.90;;;;;;6222992;23;20004;-73
2023/12/19 13:20:18;;;;;;;11.73;8.18;;;9.70;99.90;;;;;;6196882;23;20019;-72
2023/12/19 13:23:07;;;;;;;12.43;8.38;;;9.70;99.90;;;;;;6210836;23;20004;-73
2023/12/19 13:25:54;;;;;;;11.63;7.93;;;9.70;99.90;;;;;;6212152;23;20427;-74
2023/12/19 13:28:40;;;;;;;12.25;8.60;;;9.70;99.90;;;;;;6212196;23;20016;-73
2023/12/19 13:31:27;;;;;;;11.90;8.55;;;9.70;99.90;;;;;;6210800;23;20019;-72
2023/12/19 13:34:13;;;;;;;10.93;8.98;;;9.70;99.90;;;;;;6209780;23;20040;-72
2023/12/19 13:36:59;;;;;;;11.93;7.72;;;9.70;99.90;;;;;;6207545;23;20021;-72
2023/12/19 13:39:45;;;;;;;12.25;8.43;;;9.70;99.90;;;;;;6211129;23;20074;-73
2023/12/19 13:42:30;;;;;;;11.32;8.88;;;9.70;99.90;;;;;;6211590;23;20005;-72
2023/12/19 13:45:16;;;;;;;12.45;8.82;;;9.60;99.90;;;;;;6212007;23;20009;-73
2023/12/19 13:48:06;;;;;;;11.18;8.32;;;9.70;99.90;;;;;;6211617;23;20015;-70
2023/12/19 13:50:52;;;;;;;11.00;8.43;;;9.70;99.90;;;;;;6187396;23;20043;-73
2023/12/19 13:53:40;;;;;;;12.50;8.50;;;9.60;99.90;;;;;;6213499;23;20021;-74
2023/12/19 13:56:26;;;;;;;11.38;7.43;;;9.70;99.90;;;;;;6212130;23;20128;-73
2023/12/19 13:59:12;;;;;;;11.70;7.70;;;9.70;99.90;;;;;;6189449;23;20015;-77
2023/12/19 14:01:58;;;;;;;11.48;7.78;;;9.60;99.90;;;;;;6211173;23;20043;-74
2023/12/19 14:04:44;;;;;;;18.85;8.77;;;9.60;99.90;;;;;;6210917;23;20565;-75
2023/12/19 14:07:30;;;;;;;12.70;8.40;;;9.70;99.90;;;;;;6209320;23;20013;-71
2023/12/19 14:10:16;;;;;;;12.15;8.32;;;9.70;99.90;;;;;;6211407;23;20008;-71
2023/12/19 14:13:05;;;;;;;14.38;9.00;;;9.70;99.90;;;;;;6187939;23;20015;-71
2023/12/19 14:15:53;;;;;;;14.55;9.65;;;9.70;99.90;;;;;;6209664;23;20030;-71
2023/12/19 14:18:39;;;;;;;17.23;9.82;;;9.70;99.90;;;;;;6211767;23;20011;-70
2023/12/19 14:21:25;;;;;;;13.60;8.82;;;9.60;99.90;;;;;;6210717;23;20140;-71
2023/12/19 14:24:11;;;;;;;13.68;8.50;;;9.60;99.90;;;;;;6188641;23;20015;-70
2023/12/19 14:26:56;;;;;;;12.55;7.95;;;9.60;99.90;;;;;;6209848;23;20012;-71
2023/12/19 14:29:43;;;;;;;10.52;7.47;;;9.60;99.90;;;;;;6211052;23;20019;-70
2023/12/19 14:32:29;;;;;;;11.82;8.23;;;9.60;99.90;;;;;;6211422;23;20370;-70
2023/12/19 14:35:15;;;;;;;11.60;8.82;;;9.60;99.90;;;;;;6187974;23;20021;-72
2023/12/19 14:38:01;;;;;;;11.40;8.30;;;9.60;99.90;;;;;;6186944;23;20015;-70